sensor_id;sensor_type;location;lat;lon;timestamp;temperature;humidity
23685;DHT22;12020;51.384;6.908;2023-01-08T00:01:21;10.80;99.90
23685;DHT22;12020;51.384;6.908;2023-01-08T00:03:56;10.80;99.90
23685;DHT22;12020;51.384;6.908;2023-01-08T00:06:22;10.80;99.90
23685;DHT22;12020;51.384;6.908;2023-01-08T00:08:51;10.80;99.90
23685;DHT22;12020;51.384;6.908;2023-01-08T00:11:25;10.80;99.90
23685;DHT22;12020;51.384;6.908;2023-01-08T00:13:51;10.80;99.90
23685;DHT22;12020;51.384;6.908;2023-01-08T00:16:22;10.80;99.90
23685;DHT22;12020;51.384;6.908;2023-01-08T00:18:48;10.80;99.90
23685;DHT22;12020;51.384;6.908;2023-01-08T00:21:17;10.80;99.90
23685;DHT22;12020;51.384;6.908;2023-01-08T00:23:44;10.80;99.90
23685;DHT22;12020;51.384;6.908;2023-01-08T00:26:12;10.80;99.90
23685;DHT22;12020;51.384;6.908;2023-01-08T00:28:41;10.80;99.90
23685;DHT22;12020;51.384;6.908;2023-01-08T00:31:11;10.80;99.90
23685;DHT22;12020;51.384;6.908;2023-01-08T00:33:38;10.80;99.90
23685;DHT22;12020;51.384;6.908;2023-01-08T00:36:10;10.80;99.90
23685;DHT22;12020;51.384;6.908;2023-01-08T00:38:36;10.80;99.90
23685;DHT22;12020;51.384;6.908;2023-01-08T00:41:05;10.80;99.90
23685;DHT22;12020;51.384;6.908;2023-01-08T00:43:36;10.80;99.90
23685;DHT22;12020;51.384;6.908;2023-01-08T00:46:03;10.80;99.90
23685;DHT22;12020;51.384;6.908;2023-01-08T00:48:31;10.80;99.90
23685;DHT22;12020;51.384;6.908;2023-01-08T00:51:01;10.80;99.90
23685;DHT22;12020;51.384;6.908;2023-01-08T00:53:37;10.80;99.90
23685;DHT22;12020;51.384;6.908;2023-01-08T00:56:07;10.80;99.90
23685;DHT22;12020;51.384;6.908;2023-01-08T00:58:51;10.80;99.90
23685;DHT22;12020;51.384;6.908;2023-01-08T01:01:20;10.80;99.90
23685;DHT22;12020;51.384;6.908;2023-01-08T01:03:52;10.80;99.90
23685;DHT22;12020;51.384;6.908;2023-01-08T01:06:23;10.80;99.90
23685;DHT22;12020;51.384;6.908;2023-01-08T01:08:52;10.80;99.90
23685;DHT22;12020;51.384;6.908;2023-01-08T01:11:25;10.80;99.90
23685;DHT22;12020;51.384;6.908;2023-01-08T01:14:00;10.80;99.90
23685;DHT22;12020;51.384;6.908;2023-01-08T01:16:28;10.80;99.90
23685;DHT22;12020;51.384;6.908;2023-01-08T01:18:58;10.80;99.90
23685;DHT22;12020;51.384;6.908;2023-01-08T01:21:36;10.80;99.90
23685;DHT22;12020;51.384;6.908;2023-01-08T01:24:14;10.80;99.90
23685;DHT22;12020;51.384;6.908;2023-01-08T01:26:46;10.80;99.90
23685;DHT22;12020;51.384;6.908;2023-01-08T01:29:13;10.80;99.90
23685;DHT22;12020;51.384;6.908;2023-01-08T01:31:41;10.80;99.90
23685;DHT22;12020;51.384;6.908;2023-01-08T01:34:09;10.80;99.90
23685;DHT22;12020;51.384;6.908;2023-01-08T01:36:42;10.80;99.90
23685;DHT22;12020;51.384;6.908;2023-01-08T01:39:11;10.80;99.90
23685;DHT22;12020;51.384;6.908;2023-01-08T01:41:46;10.80;99.90
23685;DHT22;12020;51.384;6.908;2023-01-08T01:47:27;10.80;99.90
23685;DHT22;12020;51.384;6.908;2023-01-08T01:50:01;10.80;99.90
23685;DHT22;12020;51.384;6.908;2023-01-08T01:52:32;10.80;99.90
23685;DHT22;12020;51.384;6.908;2023-01-08T01:55:02;10.80;99.90
23685;DHT22;12020;51.384;6.908;2023-01-08T01:57:37;10.80;99.90
23685;DHT22;12020;51.384;6.908;2023-01-08T02:00:06;10.80;99.90
23685;DHT22;12020;51.384;6.908;2023-01-08T02:02:33;10.80;99.90
23685;DHT22;12020;51.384;6.908;2023-01-08T02:05:00;10.70;99.90
23685;DHT22;12020;51.384;6.908;2023-01-08T02:07:39;10.70;99.90
23685;DHT22;12020;51.384;6.908;2023-01-08T02:10:17;10.70;99.90
23685;DHT22;12020;51.384;6.908;2023-01-08T02:13:28;10.70;99.90
23685;DHT22;12020;51.384;6.908;2023-01-08T02:16:04;10.70;99.90
23685;DHT22;12020;51.384;6.908;2023-01-08T02:19:02;10.70;99.90
23685;DHT22;12020;51.384;6.908;2023-01-08T02:21:40;10.70;99.90
23685;DHT22;12020;51.384;6.908;2023-01-08T02:24:26;10.70;99.90
23685;DHT22;12020;51.384;6.908;2023-01-08T02:26:58;10.70;99.90
23685;DHT22;12020;51.384;6.908;2023-01-08T02:29:28;10.70;99.90
23685;DHT22;12020;51.384;6.908;2023-01-08T02:31:55;10.60;99.90
23685;DHT22;12020;51.384;6.908;2023-01-08T02:34:28;10.60;99.90
23685;DHT22;12020;51.384;6.908;2023-01-08T02:36:56;10.60;99.90
23685;DHT22;12020;51.384;6.908;2023-01-08T02:39:48;10.60;99.90
23685;DHT22;12020;51.384;6.908;2023-01-08T02:45:47;10.60;99.90
23685;DHT22;12020;51.384;6.908;2023-01-08T02:53:42;10.60;99.90
23685;DHT22;12020;51.384;6.908;2023-01-08T02:56:14;10.60;99.90
23685;DHT22;12020;51.384;6.908;2023-01-08T02:58:43;10.60;99.90
23685;DHT22;12020;51.384;6.908;2023-01-08T03:01:14;10.60;99.90
23685;DHT22;12020;51.384;6.908;2023-01-08T03:03:49;10.50;99.90
23685;DHT22;12020;51.384;6.908;2023-01-08T03:06:18;10.50;99.90
23685;DHT22;12020;51.384;6.908;2023-01-08T03:08:48;10.50;99.90
23685;DHT22;12020;51.384;6.908;2023-01-08T03:11:19;10.50;99.90
23685;DHT22;12020;51.384;6.908;2023-01-08T03:14:06;10.50;99.90
23685;DHT22;12020;51.384;6.908;2023-01-08T03:16:37;10.50;99.90
23685;DHT22;12020;51.384;6.908;2023-01-08T03:19:23;10.50;99.90
23685;DHT22;12020;51.384;6.908;2023-01-08T03:21:56;10.50;99.90
23685;DHT22;12020;51.384;6.908;2023-01-08T03:24:27;10.50;99.90
23685;DHT22;12020;51.384;6.908;2023-01-08T03:26:57;10.50;99.90
23685;DHT22;12020;51.384;6.908;2023-01-08T03:29:25;10.50;99.90
23685;DHT22;12020;51.384;6.908;2023-01-08T03:32:02;10.50;99.90
23685;DHT22;12020;51.384;6.908;2023-01-08T03:34:32;10.50;99.90
23685;DHT22;12020;51.384;6.908;2023-01-08T03:37:04;10.50;99.90
23685;DHT22;12020;51.384;6.908;2023-01-08T03:39:59;10.50;99.90
23685;DHT22;12020;51.384;6.908;2023-01-08T03:42:31;10.50;99.90
23685;DHT22;12020;51.384;6.908;2023-01-08T03:44:58;10.50;99.90
23685;DHT22;12020;51.384;6.908;2023-01-08T03:47:28;10.50;99.90
23685;DHT22;12020;51.384;6.908;2023-01-08T03:50:10;10.50;99.90
23685;DHT22;12020;51.384;6.908;2023-01-08T03:52:39;10.50;99.90
23685;DHT22;12020;51.384;6.908;2023-01-08T03:55:10;10.50;99.90
23685;DHT22;12020;51.384;6.908;2023-01-08T03:57:36;10.50;99.90
23685;DHT22;12020;51.384;6.908;2023-01-08T04:00:03;10.50;99.90
23685;DHT22;12020;51.384;6.908;2023-01-08T04:02:30;10.50;99.90
23685;DHT22;12020;51.384;6.908;2023-01-08T04:04:57;10.50;99.90
23685;DHT22;12020;51.384;6.908;2023-01-08T04:07:30;10.50;99.90
23685;DHT22;12020;51.384;6.908;2023-01-08T04:10:03;10.50;99.90
23685;DHT22;12020;51.384;6.908;2023-01-08T04:12:30;10.50;99.90
23685;DHT22;12020;51.384;6.908;2023-01-08T04:14:57;10.50;99.90
23685;DHT22;12020;51.384;6.908;2023-01-08T04:17:24;10.50;99.90
23685;DHT22;12020;51.384;6.908;2023-01-08T04:19:54;10.50;99.90
23685;DHT22;12020;51.384;6.908;2023-01-08T04:22:28;10.50;99.90
23685;DHT22;12020;51.384;6.908;2023-01-08T04:24:55;10.50;99.90
23685;DHT22;12020;51.384;6.908;2023-01-08T04:27:20;10.50;99.90
23685;DHT22;12020;51.384;6.908;2023-01-08T04:29:50;10.50;99.90
23685;DHT22;12020;51.384;6.908;2023-01-08T04:32:18;10.50;99.90
23685;DHT22;12020;51.384;6.908;2023-01-08T04:34:51;10.60;99.90
23685;DHT22;12020;51.384;6.908;2023-01-08T04:37:20;10.50;99.90
23685;DHT22;12020;51.384;6.908;2023-01-08T04:39:50;10.50;99.90
23685;DHT22;12020;51.384;6.908;2023-01-08T04:42:26;10.50;99.90
23685;DHT22;12020;51.384;6.908;2023-01-08T04:44:58;10.50;99.90
23685;DHT22;12020;51.384;6.908;2023-01-08T04:47:28;10.50;99.90
23685;DHT22;12020;51.384;6.908;2023-01-08T04:49:56;10.50;99.90
23685;DHT22;12020;51.384;6.908;2023-01-08T04:52:26;10.50;99.90
23685;DHT22;12020;51.384;6.908;2023-01-08T04:54:59;10.50;99.90
23685;DHT22;12020;51.384;6.908;2023-01-08T04:57:32;10.40;99.90
23685;DHT22;12020;51.384;6.908;2023-01-08T05:00:03;10.40;99.90
23685;DHT22;12020;51.384;6.908;2023-01-08T05:02:30;10.40;99.90
23685;DHT22;12020;51.384;6.908;2023-01-08T05:04:57;10.40;99.90
23685;DHT22;12020;51.384;6.908;2023-01-08T05:07:35;10.40;99.90
23685;DHT22;12020;51.384;6.908;2023-01-08T05:10:02;10.40;99.90
23685;DHT22;12020;51.384;6.908;2023-01-08T05:12:29;10.40;99.90
23685;DHT22;12020;51.384;6.908;2023-01-08T05:14:58;10.40;99.90
23685;DHT22;12020;51.384;6.908;2023-01-08T05:17:34;10.40;99.90
23685;DHT22;12020;51.384;6.908;2023-01-08T05:20:02;10.40;99.90
23685;DHT22;12020;51.384;6.908;2023-01-08T05:22:40;10.40;99.90
23685;DHT22;12020;51.384;6.908;2023-01-08T05:25:07;10.40;99.90
23685;DHT22;12020;51.384;6.908;2023-01-08T05:27:33;10.40;99.90
23685;DHT22;12020;51.384;6.908;2023-01-08T05:30:26;10.40;99.90
23685;DHT22;12020;51.384;6.908;2023-01-08T05:32:56;10.40;99.90
23685;DHT22;12020;51.384;6.908;2023-01-08T05:35:25;10.40;99.90
23685;DHT22;12020;51.384;6.908;2023-01-08T05:38:00;10.40;99.90
23685;DHT22;12020;51.384;6.908;2023-01-08T05:40:28;10.40;99.90
23685;DHT22;12020;51.384;6.908;2023-01-08T05:42:57;10.40;99.90
23685;DHT22;12020;51.384;6.908;2023-01-08T05:45:25;10.40;99.90
23685;DHT22;12020;51.384;6.908;2023-01-08T05:47:54;10.40;99.90
23685;DHT22;12020;51.384;6.908;2023-01-08T05:50:25;10.40;99.90
23685;DHT22;12020;51.384;6.908;2023-01-08T05:52:51;10.40;99.90
23685;DHT22;12020;51.384;6.908;2023-01-08T05:55:17;10.40;99.90
23685;DHT22;12020;51.384;6.908;2023-01-08T05:57:45;10.40;99.90
23685;DHT22;12020;51.384;6.908;2023-01-08T06:00:19;10.40;99.90
23685;DHT22;12020;51.384;6.908;2023-01-08T06:02:48;10.40;99.90
23685;DHT22;12020;51.384;6.908;2023-01-08T06:05:15;10.40;99.90
23685;DHT22;12020;51.384;6.908;2023-01-08T06:07:43;10.40;99.90
23685;DHT22;12020;51.384;6.908;2023-01-08T06:10:19;10.40;99.90
23685;DHT22;12020;51.384;6.908;2023-01-08T06:12:47;10.40;99.90
23685;DHT22;12020;51.384;6.908;2023-01-08T06:15:19;10.40;99.90
23685;DHT22;12020;51.384;6.908;2023-01-08T06:17:46;10.40;99.90
23685;DHT22;12020;51.384;6.908;2023-01-08T06:20:14;10.40;99.90
23685;DHT22;12020;51.384;6.908;2023-01-08T06:22:40;10.40;99.90
23685;DHT22;12020;51.384;6.908;2023-01-08T06:25:19;10.40;99.90
23685;DHT22;12020;51.384;6.908;2023-01-08T06:27:51;10.40;99.90
23685;DHT22;12020;51.384;6.908;2023-01-08T06:30:23;10.40;99.90
23685;DHT22;12020;51.384;6.908;2023-01-08T06:32:55;10.40;99.90
23685;DHT22;12020;51.384;6.908;2023-01-08T06:35:27;10.40;99.90
23685;DHT22;12020;51.384;6.908;2023-01-08T06:37:59;10.40;99.90
23685;DHT22;12020;51.384;6.908;2023-01-08T06:40:29;10.40;99.90
23685;DHT22;12020;51.384;6.908;2023-01-08T06:43:04;10.40;99.90
23685;DHT22;12020;51.384;6.908;2023-01-08T06:45:44;10.40;99.90
23685;DHT22;12020;51.384;6.908;2023-01-08T06:48:29;10.40;99.90
23685;DHT22;12020;51.384;6.908;2023-01-08T06:51:04;10.30;99.90
23685;DHT22;12020;51.384;6.908;2023-01-08T06:53:32;10.40;99.90
23685;DHT22;12020;51.384;6.908;2023-01-08T06:55:58;10.30;99.90
23685;DHT22;12020;51.384;6.908;2023-01-08T06:58:28;10.30;99.90
23685;DHT22;12020;51.384;6.908;2023-01-08T07:00:55;10.20;99.90
23685;DHT22;12020;51.384;6.908;2023-01-08T07:03:32;10.10;99.90
23685;DHT22;12020;51.384;6.908;2023-01-08T07:06:02;10.10;99.90
23685;DHT22;12020;51.384;6.908;2023-01-08T07:08:41;10.00;99.90
23685;DHT22;12020;51.384;6.908;2023-01-08T07:11:10;10.00;99.90
23685;DHT22;12020;51.384;6.908;2023-01-08T07:13:38;9.90;99.90
23685;DHT22;12020;51.384;6.908;2023-01-08T07:16:23;9.90;99.90
23685;DHT22;12020;51.384;6.908;2023-01-08T07:18:57;9.80;99.90
23685;DHT22;12020;51.384;6.908;2023-01-08T07:21:24;9.80;99.90
23685;DHT22;12020;51.384;6.908;2023-01-08T07:23:50;9.70;99.90
23685;DHT22;12020;51.384;6.908;2023-01-08T07:26:16;9.70;99.90
23685;DHT22;12020;51.384;6.908;2023-01-08T07:29:05;9.70;99.90
23685;DHT22;12020;51.384;6.908;2023-01-08T07:31:39;9.70;99.90
23685;DHT22;12020;51.384;6.908;2023-01-08T07:34:07;9.60;99.90
23685;DHT22;12020;51.384;6.908;2023-01-08T07:36:51;9.60;99.90
23685;DHT22;12020;51.384;6.908;2023-01-08T07:39:16;9.60;99.90
23685;DHT22;12020;51.384;6.908;2023-01-08T07:41:49;9.50;99.90
23685;DHT22;12020;51.384;6.908;2023-01-08T07:44:16;9.50;99.90
23685;DHT22;12020;51.384;6.908;2023-01-08T07:46:49;9.50;99.90
23685;DHT22;12020;51.384;6.908;2023-01-08T07:49:21;9.40;99.90
23685;DHT22;12020;51.384;6.908;2023-01-08T07:51:52;9.40;99.90
23685;DHT22;12020;51.384;6.908;2023-01-08T07:54:20;9.40;99.90
23685;DHT22;12020;51.384;6.908;2023-01-08T07:56:56;9.40;99.90
23685;DHT22;12020;51.384;6.908;2023-01-08T07:59:24;9.30;99.90
23685;DHT22;12020;51.384;6.908;2023-01-08T08:01:53;9.30;99.90
23685;DHT22;12020;51.384;6.908;2023-01-08T08:04:24;9.20;99.90
23685;DHT22;12020;51.384;6.908;2023-01-08T08:06:50;9.20;99.90
23685;DHT22;12020;51.384;6.908;2023-01-08T08:09:17;9.20;99.90
23685;DHT22;12020;51.384;6.908;2023-01-08T08:11:53;9.20;99.90
23685;DHT22;12020;51.384;6.908;2023-01-08T08:14:19;9.20;99.90
23685;DHT22;12020;51.384;6.908;2023-01-08T08:16:46;9.10;99.90
23685;DHT22;12020;51.384;6.908;2023-01-08T08:19:14;9.10;99.90
23685;DHT22;12020;51.384;6.908;2023-01-08T08:21:41;9.10;99.90
23685;DHT22;12020;51.384;6.908;2023-01-08T08:24:10;9.10;99.90
23685;DHT22;12020;51.384;6.908;2023-01-08T08:26:36;9.00;99.90
23685;DHT22;12020;51.384;6.908;2023-01-08T08:29:05;9.00;99.90
23685;DHT22;12020;51.384;6.908;2023-01-08T08:31:45;8.90;99.90
23685;DHT22;12020;51.384;6.908;2023-01-08T08:34:17;8.90;99.90
23685;DHT22;12020;51.384;6.908;2023-01-08T08:36:45;8.90;99.90
23685;DHT22;12020;51.384;6.908;2023-01-08T08:39:13;8.90;99.90
23685;DHT22;12020;51.384;6.908;2023-01-08T08:41:39;8.80;99.90
23685;DHT22;12020;51.384;6.908;2023-01-08T08:44:07;8.90;99.90
23685;DHT22;12020;51.384;6.908;2023-01-08T08:46:34;8.80;99.90
23685;DHT22;12020;51.384;6.908;2023-01-08T08:48:59;8.80;99.90
23685;DHT22;12020;51.384;6.908;2023-01-08T08:51:26;8.80;99.90
23685;DHT22;12020;51.384;6.908;2023-01-08T08:53:52;8.70;99.90
23685;DHT22;12020;51.384;6.908;2023-01-08T08:56:18;8.70;99.90
23685;DHT22;12020;51.384;6.908;2023-01-08T08:58:46;8.80;99.90
23685;DHT22;12020;51.384;6.908;2023-01-08T09:01:12;8.90;99.90
23685;DHT22;12020;51.384;6.908;2023-01-08T09:03:38;8.90;99.90
23685;DHT22;12020;51.384;6.908;2023-01-08T09:06:04;8.90;99.90
23685;DHT22;12020;51.384;6.908;2023-01-08T09:08:31;8.90;99.90
23685;DHT22;12020;51.384;6.908;2023-01-08T09:10:57;9.00;99.90
23685;DHT22;12020;51.384;6.908;2023-01-08T09:13:23;9.00;99.90
23685;DHT22;12020;51.384;6.908;2023-01-08T09:15:49;9.00;99.90
23685;DHT22;12020;51.384;6.908;2023-01-08T09:18:14;9.00;99.90
23685;DHT22;12020;51.384;6.908;2023-01-08T09:20:41;9.10;99.90
23685;DHT22;12020;51.384;6.908;2023-01-08T09:23:06;9.20;99.90
23685;DHT22;12020;51.384;6.908;2023-01-08T09:25:34;9.30;99.90
23685;DHT22;12020;51.384;6.908;2023-01-08T09:28:06;9.50;99.90
23685;DHT22;12020;51.384;6.908;2023-01-08T09:30:34;9.60;99.90
23685;DHT22;12020;51.384;6.908;2023-01-08T09:33:02;9.80;99.90
23685;DHT22;12020;51.384;6.908;2023-01-08T09:35:28;9.90;99.90
23685;DHT22;12020;51.384;6.908;2023-01-08T09:37:54;10.00;99.90
23685;DHT22;12020;51.384;6.908;2023-01-08T09:40:30;10.10;99.90
23685;DHT22;12020;51.384;6.908;2023-01-08T09:42:59;10.30;99.90
23685;DHT22;12020;51.384;6.908;2023-01-08T09:45:34;10.40;99.90
23685;DHT22;12020;51.384;6.908;2023-01-08T09:48:04;10.50;99.90
23685;DHT22;12020;51.384;6.908;2023-01-08T09:50:33;10.60;99.90
23685;DHT22;12020;51.384;6.908;2023-01-08T09:52:59;10.70;99.90
23685;DHT22;12020;51.384;6.908;2023-01-08T09:55:28;10.80;99.90
23685;DHT22;12020;51.384;6.908;2023-01-08T09:57:56;10.80;99.90
23685;DHT22;12020;51.384;6.908;2023-01-08T10:00:29;10.80;99.90
23685;DHT22;12020;51.384;6.908;2023-01-08T10:02:57;10.80;99.90
23685;DHT22;12020;51.384;6.908;2023-01-08T10:05:27;10.80;99.90
23685;DHT22;12020;51.384;6.908;2023-01-08T10:07:54;10.70;99.90
23685;DHT22;12020;51.384;6.908;2023-01-08T10:10:27;10.70;99.90
23685;DHT22;12020;51.384;6.908;2023-01-08T10:12:55;10.70;99.90
23685;DHT22;12020;51.384;6.908;2023-01-08T10:15:22;10.60;99.90
23685;DHT22;12020;51.384;6.908;2023-01-08T10:20:23;10.60;99.90
23685;DHT22;12020;51.384;6.908;2023-01-08T10:22:52;10.60;99.90
23685;DHT22;12020;51.384;6.908;2023-01-08T10:25:23;10.60;99.90
23685;DHT22;12020;51.384;6.908;2023-01-08T10:27:51;10.60;99.90
23685;DHT22;12020;51.384;6.908;2023-01-08T10:30:44;10.70;99.90
23685;DHT22;12020;51.384;6.908;2023-01-08T10:33:22;10.70;99.90
23685;DHT22;12020;51.384;6.908;2023-01-08T10:35:54;10.70;99.90
23685;DHT22;12020;51.384;6.908;2023-01-08T10:38:29;10.70;99.90
23685;DHT22;12020;51.384;6.908;2023-01-08T10:40:57;10.70;99.90
23685;DHT22;12020;51.384;6.908;2023-01-08T10:43:33;10.80;99.90
23685;DHT22;12020;51.384;6.908;2023-01-08T10:46:03;10.80;99.90
23685;DHT22;12020;51.384;6.908;2023-01-08T10:48:43;10.80;99.90
23685;DHT22;12020;51.384;6.908;2023-01-08T10:51:18;10.80;99.90
23685;DHT22;12020;51.384;6.908;2023-01-08T10:53:46;10.80;99.90
23685;DHT22;12020;51.384;6.908;2023-01-08T10:56:21;10.80;99.90
23685;DHT22;12020;51.384;6.908;2023-01-08T10:58:50;10.90;99.90
23685;DHT22;12020;51.384;6.908;2023-01-08T11:01:26;10.90;99.90
23685;DHT22;12020;51.384;6.908;2023-01-08T11:04:03;10.80;99.90
23685;DHT22;12020;51.384;6.908;2023-01-08T11:06:32;10.80;99.90
23685;DHT22;12020;51.384;6.908;2023-01-08T11:09:26;10.70;99.90
23685;DHT22;12020;51.384;6.908;2023-01-08T11:11:53;10.70;99.90
23685;DHT22;12020;51.384;6.908;2023-01-08T11:14:29;10.70;99.90
23685;DHT22;12020;51.384;6.908;2023-01-08T11:16:57;10.70;99.90
23685;DHT22;12020;51.384;6.908;2023-01-08T11:19:31;10.80;99.90
23685;DHT22;12020;51.384;6.908;2023-01-08T11:22:17;10.80;99.90
23685;DHT22;12020;51.384;6.908;2023-01-08T11:24:45;10.90;99.90
23685;DHT22;12020;51.384;6.908;2023-01-08T11:27:36;10.90;99.90
23685;DHT22;12020;51.384;6.908;2023-01-08T11:30:12;10.90;99.90
23685;DHT22;12020;51.384;6.908;2023-01-08T11:33:05;10.90;99.90
23685;DHT22;12020;51.384;6.908;2023-01-08T11:35:40;11.00;99.90
23685;DHT22;12020;51.384;6.908;2023-01-08T11:38:11;10.90;99.90
23685;DHT22;12020;51.384;6.908;2023-01-08T11:49:25;11.10;99.90
23685;DHT22;12020;51.384;6.908;2023-01-08T11:52:33;11.20;99.90
23685;DHT22;12020;51.384;6.908;2023-01-08T12:03:50;11.20;99.90
23685;DHT22;12020;51.384;6.908;2023-01-08T12:09:15;11.20;99.90
23685;DHT22;12020;51.384;6.908;2023-01-08T12:12:03;11.20;99.90
23685;DHT22;12020;51.384;6.908;2023-01-08T12:20:23;11.20;99.90
23685;DHT22;12020;51.384;6.908;2023-01-08T12:28:43;11.00;99.90
23685;DHT22;12020;51.384;6.908;2023-01-08T12:31:29;10.70;99.90
23685;DHT22;12020;51.384;6.908;2023-01-08T12:34:30;10.50;99.90
23685;DHT22;12020;51.384;6.908;2023-01-08T12:37:05;10.30;99.90
23685;DHT22;12020;51.384;6.908;2023-01-08T12:39:55;10.20;99.90
23685;DHT22;12020;51.384;6.908;2023-01-08T12:42:27;10.20;99.90
23685;DHT22;12020;51.384;6.908;2023-01-08T12:44:56;10.20;99.90
23685;DHT22;12020;51.384;6.908;2023-01-08T12:47:26;10.30;99.90
23685;DHT22;12020;51.384;6.908;2023-01-08T12:50:15;10.30;99.90
23685;DHT22;12020;51.384;6.908;2023-01-08T12:53:11;10.30;99.90
23685;DHT22;12020;51.384;6.908;2023-01-08T12:55:51;10.30;99.90
23685;DHT22;12020;51.384;6.908;2023-01-08T13:01:32;10.30;99.90
23685;DHT22;12020;51.384;6.908;2023-01-08T13:04:02;10.30;99.90
23685;DHT22;12020;51.384;6.908;2023-01-08T13:06:30;10.20;99.90
23685;DHT22;12020;51.384;6.908;2023-01-08T13:08:58;10.20;99.90
23685;DHT22;12020;51.384;6.908;2023-01-08T13:11:33;10.20;99.90
23685;DHT22;12020;51.384;6.908;2023-01-08T13:14:08;10.30;99.90
23685;DHT22;12020;51.384;6.908;2023-01-08T13:16:37;10.20;99.90
23685;DHT22;12020;51.384;6.908;2023-01-08T13:19:04;10.30;99.90
23685;DHT22;12020;51.384;6.908;2023-01-08T13:24:32;10.40;99.90
23685;DHT22;12020;51.384;6.908;2023-01-08T13:27:28;10.60;99.90
23685;DHT22;12020;51.384;6.908;2023-01-08T13:29:54;10.60;99.90
23685;DHT22;12020;51.384;6.908;2023-01-08T13:32:41;10.60;99.90
23685;DHT22;12020;51.384;6.908;2023-01-08T13:37:49;10.60;99.90
23685;DHT22;12020;51.384;6.908;2023-01-08T13:43:09;10.60;99.90
23685;DHT22;12020;51.384;6.908;2023-01-08T13:45:37;10.60;99.90
23685;DHT22;12020;51.384;6.908;2023-01-08T13:48:05;10.60;99.90
23685;DHT22;12020;51.384;6.908;2023-01-08T13:50:31;10.60;99.90
23685;DHT22;12020;51.384;6.908;2023-01-08T13:53:00;10.60;99.90
23685;DHT22;12020;51.384;6.908;2023-01-08T13:57:58;10.60;99.90
23685;DHT22;12020;51.384;6.908;2023-01-08T14:03:32;10.50;99.90
23685;DHT22;12020;51.384;6.908;2023-01-08T14:06:25;10.60;99.90
23685;DHT22;12020;51.384;6.908;2023-01-08T14:08:57;10.60;99.90
23685;DHT22;12020;51.384;6.908;2023-01-08T14:11:43;10.60;99.90
23685;DHT22;12020;51.384;6.908;2023-01-08T14:14:12;10.60;99.90
23685;DHT22;12020;51.384;6.908;2023-01-08T14:16:39;10.60;99.90
23685;DHT22;12020;51.384;6.908;2023-01-08T14:19:06;10.70;99.90
23685;DHT22;12020;51.384;6.908;2023-01-08T14:21:32;10.70;99.90
23685;DHT22;12020;51.384;6.908;2023-01-08T14:23:58;10.70;99.90
23685;DHT22;12020;51.384;6.908;2023-01-08T14:26:32;10.70;99.90
23685;DHT22;12020;51.384;6.908;2023-01-08T14:29:03;10.70;99.90
23685;DHT22;12020;51.384;6.908;2023-01-08T14:31:36;10.80;99.90
23685;DHT22;12020;51.384;6.908;2023-01-08T14:34:04;10.80;99.90
23685;DHT22;12020;51.384;6.908;2023-01-08T14:36:30;10.80;99.90
23685;DHT22;12020;51.384;6.908;2023-01-08T14:38:56;10.90;99.90
23685;DHT22;12020;51.384;6.908;2023-01-08T14:41:31;10.90;99.90
23685;DHT22;12020;51.384;6.908;2023-01-08T14:44:20;10.80;99.90
23685;DHT22;12020;51.384;6.908;2023-01-08T14:46:48;10.70;99.90
23685;DHT22;12020;51.384;6.908;2023-01-08T14:49:33;10.70;99.90
23685;DHT22;12020;51.384;6.908;2023-01-08T14:52:09;10.70;99.90
23685;DHT22;12020;51.384;6.908;2023-01-08T14:54:52;10.70;99.90
23685;DHT22;12020;51.384;6.908;2023-01-08T14:57:20;10.60;99.90
23685;DHT22;12020;51.384;6.908;2023-01-08T14:59:57;10.60;99.90
23685;DHT22;12020;51.384;6.908;2023-01-08T15:02:30;10.60;99.90
23685;DHT22;12020;51.384;6.908;2023-01-08T15:07:42;10.50;99.90
23685;DHT22;12020;51.384;6.908;2023-01-08T15:13:03;10.50;99.90
23685;DHT22;12020;51.384;6.908;2023-01-08T15:15:53;10.50;99.90
23685;DHT22;12020;51.384;6.908;2023-01-08T15:18:23;10.40;99.90
23685;DHT22;12020;51.384;6.908;2023-01-08T15:20:50;10.40;99.90
23685;DHT22;12020;51.384;6.908;2023-01-08T15:23:27;10.40;99.90
23685;DHT22;12020;51.384;6.908;2023-01-08T15:25:56;10.40;99.90
23685;DHT22;12020;51.384;6.908;2023-01-08T15:28:22;10.40;99.90
23685;DHT22;12020;51.384;6.908;2023-01-08T15:30:54;10.30;99.90
23685;DHT22;12020;51.384;6.908;2023-01-08T15:33:23;10.30;99.90
23685;DHT22;12020;51.384;6.908;2023-01-08T15:35:55;10.30;99.90
23685;DHT22;12020;51.384;6.908;2023-01-08T15:38:24;10.20;99.90
23685;DHT22;12020;51.384;6.908;2023-01-08T15:40:50;10.30;99.90
23685;DHT22;12020;51.384;6.908;2023-01-08T15:43:18;10.30;99.90
23685;DHT22;12020;51.384;6.908;2023-01-08T15:45:48;10.20;99.90
23685;DHT22;12020;51.384;6.908;2023-01-08T15:48:17;10.30;99.90
23685;DHT22;12020;51.384;6.908;2023-01-08T15:50:44;10.20;99.90
23685;DHT22;12020;51.384;6.908;2023-01-08T15:53:16;10.20;99.90
23685;DHT22;12020;51.384;6.908;2023-01-08T15:55:43;10.30;99.90
23685;DHT22;12020;51.384;6.908;2023-01-08T15:58:11;10.30;99.90
23685;DHT22;12020;51.384;6.908;2023-01-08T16:00:42;10.20;99.90
23685;DHT22;12020;51.384;6.908;2023-01-08T16:03:09;10.20;99.90
23685;DHT22;12020;51.384;6.908;2023-01-08T16:05:36;10.20;99.90
23685;DHT22;12020;51.384;6.908;2023-01-08T16:08:04;10.20;99.90
23685;DHT22;12020;51.384;6.908;2023-01-08T16:10:36;10.20;99.90
23685;DHT22;12020;51.384;6.908;2023-01-08T16:13:04;10.10;99.90
23685;DHT22;12020;51.384;6.908;2023-01-08T16:15:32;10.10;99.90
23685;DHT22;12020;51.384;6.908;2023-01-08T16:17:59;10.20;99.90
23685;DHT22;12020;51.384;6.908;2023-01-08T16:20:25;10.10;99.90
23685;DHT22;12020;51.384;6.908;2023-01-08T16:22:52;10.20;99.90
23685;DHT22;12020;51.384;6.908;2023-01-08T16:25:21;10.20;99.90
23685;DHT22;12020;51.384;6.908;2023-01-08T16:27:51;10.10;99.90
23685;DHT22;12020;51.384;6.908;2023-01-08T16:30:23;10.10;99.90
23685;DHT22;12020;51.384;6.908;2023-01-08T16:32:52;10.20;99.90
23685;DHT22;12020;51.384;6.908;2023-01-08T16:35:19;10.20;99.90
23685;DHT22;12020;51.384;6.908;2023-01-08T16:37:47;10.20;99.90
23685;DHT22;12020;51.384;6.908;2023-01-08T16:40:17;10.20;99.90
23685;DHT22;12020;51.384;6.908;2023-01-08T16:42:50;10.20;99.90
23685;DHT22;12020;51.384;6.908;2023-01-08T16:45:17;10.20;99.90
23685;DHT22;12020;51.384;6.908;2023-01-08T16:47:45;10.20;99.90
23685;DHT22;12020;51.384;6.908;2023-01-08T16:50:11;10.20;99.90
23685;DHT22;12020;51.384;6.908;2023-01-08T16:52:37;10.10;99.90
23685;DHT22;12020;51.384;6.908;2023-01-08T16:55:05;10.10;99.90
23685;DHT22;12020;51.384;6.908;2023-01-08T16:57:34;10.10;99.90
23685;DHT22;12020;51.384;6.908;2023-01-08T17:00:05;10.10;99.90
23685;DHT22;12020;51.384;6.908;2023-01-08T17:02:31;10.10;99.90
23685;DHT22;12020;51.384;6.908;2023-01-08T17:04:57;10.10;99.90
23685;DHT22;12020;51.384;6.908;2023-01-08T17:07:24;10.10;99.90
23685;DHT22;12020;51.384;6.908;2023-01-08T17:09:50;10.10;99.90